Eihoumaru No.65 — JD3328 — position and weather

sailwx.info

Track history (hours):
 
Tides and Currents Weather Stations Pressure Air Temp Water Temp Dewpoint Dewpoint Depression Visibility Wind Speed Wind Dir Waves Ship Positions

Eihoumaru No.65

Last reported at 2018-Feb-21 11:29 UTC. Time now 2018-Feb-21 11:47 UTC.
Position N 35°22' E 139°40'.

Length 62 m; draft 4 m.

Type: Tanker. MMSI: 431003364.

Date/timePositionNaut miles runAvg speedWind from/ knotsBaromVisibWave heightAir tempDewpointWater temp
2018-Feb-21 11:29N 35°22' E 139°40'0 0.0
2018-Feb-21 10:59N 35°22' E 139°40'0 0.0
2018-Feb-21 10:29N 35°22' E 139°40'0 0.0
2018-Feb-21 09:59N 35°22' E 139°40'0 0.0
2018-Feb-21 09:26N 35°22' E 139°40'0 0.1
2018-Feb-21 08:53N 35°22' E 139°40'0 0.0
2018-Feb-21 08:29N 35°22' E 139°40'0 0.1
2018-Feb-21 07:59N 35°22' E 139°40'0 0.0
2018-Feb-21 07:26N 35°22' E 139°40'0 0.0
2018-Feb-21 07:00N 35°22' E 139°40'0 0.0
2018-Feb-21 06:30N 35°22' E 139°40'0 0.0
2018-Feb-21 06:00N 35°22' E 139°40'0 0.0
2018-Feb-21 05:30N 35°22' E 139°40'0 0.0
2018-Feb-21 05:00N 35°22' E 139°40'0 0.0
2018-Feb-21 04:30N 35°22' E 139°40'0 0.0
2018-Feb-21 04:00N 35°22' E 139°40'0 0.0
2018-Feb-21 03:30N 35°22' E 139°40'0 0.0
2018-Feb-21 03:00N 35°22' E 139°40'0 0.0
2018-Feb-21 02:30N 35°22' E 139°40'0 0.0
2018-Feb-21 02:00N 35°22' E 139°40'0 0.0
2018-Feb-21 01:30N 35°22' E 139°40'0 0.0
2018-Feb-21 01:00N 35°22' E 139°40'0 0.0
2018-Feb-21 00:30N 35°22' E 139°40'0 0.0
2018-Feb-21 00:00N 35°22' E 139°40'2 3.5
2018-Feb-20 23:30N 35°23' E 139°42'612.3
2018-Feb-20 23:00N 35°27' E 139°47'611.1
2018-Feb-20 22:29N 35°29' E 139°54'1 1.2
2018-Feb-20 22:00N 35°29' E 139°55'0 0.0
2018-Feb-20 21:30N 35°29' E 139°55'0 0.0
2018-Feb-20 21:00N 35°29' E 139°55'0 0.1
2018-Feb-20 20:30N 35°29' E 139°55'0 0.0
2018-Feb-20 20:00N 35°29' E 139°55'0 0.0
2018-Feb-20 19:30N 35°29' E 139°55'0 0.0
2018-Feb-20 19:00N 35°29' E 139°55'0 0.0
2018-Feb-20 18:30N 35°29' E 139°55'0 0.0
2018-Feb-20 18:00N 35°29' E 139°55'0 0.0
2018-Feb-20 17:30N 35°29' E 139°55'0 0.0
2018-Feb-20 16:57N 35°29' E 139°55'0 0.0
2018-Feb-20 16:30N 35°29' E 139°55'0 0.1
2018-Feb-20 16:00N 35°29' E 139°55'0 0.0
2018-Feb-20 15:30N 35°29' E 139°55'0 0.0
2018-Feb-20 15:00N 35°29' E 139°55'0 0.0
2018-Feb-20 14:30N 35°29' E 139°55'0 0.0
2018-Feb-20 14:00N 35°29' E 139°55'0 0.0
2018-Feb-20 13:26N 35°29' E 139°55'0 0.0
2018-Feb-20 13:00N 35°29' E 139°55'0 0.0
2018-Feb-20 12:30N 35°29' E 139°55'0 0.0
2018-Feb-20 12:00N 35°29' E 139°55'0 0.0
2018-Feb-20 11:30N 35°29' E 139°55'0 0.0
2018-Feb-20 11:00N 35°29' E 139°55'0 0.0
2018-Feb-20 10:30N 35°29' E 139°55'4 7.4
2018-Feb-20 10:00N 35°30' E 139°59'2 4.7
2018-Feb-20 09:30N 35°30' E 140°02'0 0.0
2018-Feb-20 09:00N 35°30' E 140°02'0 0.0
2018-Feb-20 08:30N 35°30' E 140°02'0 0.0
2018-Feb-20 08:00N 35°30' E 140°02'0 0.0
2018-Feb-20 07:30N 35°30' E 140°02'0 0.0
2018-Feb-20 07:00N 35°30' E 140°02'0 0.0
2018-Feb-20 06:30N 35°30' E 140°02'0 0.0
2018-Feb-20 06:00N 35°30' E 140°02'0 0.0
2018-Feb-20 05:30N 35°30' E 140°02'0 0.1
2018-Feb-20 04:56N 35°30' E 140°02'1 2.6
2018-Feb-20 04:29N 35°30' E 140°01'0 0.0
2018-Feb-20 04:00N 35°30' E 140°01'0 0.0
2018-Feb-20 03:30N 35°30' E 140°01'0 0.0
2018-Feb-20 03:00N 35°30' E 140°01'0 0.0
2018-Feb-20 02:29N 35°30' E 140°01'0 0.1
2018-Feb-20 02:00N 35°30' E 140°01'0 0.0
2018-Feb-20 01:29N 35°30' E 140°01'0 0.0
2018-Feb-20 00:59N 35°30' E 140°01'0 0.0
2018-Feb-20 00:30N 35°30' E 140°01'0 0.0
2018-Feb-20 00:00N 35°30' E 140°01'2 4.8
2018-Feb-19 23:30N 35°32' E 140°02'510.8
2018-Feb-19 23:00N 35°36' E 140°06'0 0.1
2018-Feb-19 22:30N 35°36' E 140°06'0 0.0
2018-Feb-19 22:00N 35°36' E 140°06'0 0.0
2018-Feb-19 21:30N 35°36' E 140°06'0 0.0
2018-Feb-19 21:00N 35°36' E 140°06'0 0.0
2018-Feb-19 20:30N 35°36' E 140°06'0 0.0
2018-Feb-19 20:00N 35°36' E 140°06'0 0.0
2018-Feb-19 19:30N 35°36' E 140°06'0 0.0
2018-Feb-19 19:00N 35°36' E 140°06'0 0.0
2018-Feb-19 18:30N 35°36' E 140°06'0 0.0
2018-Feb-19 18:00N 35°36' E 140°06'0 0.0
2018-Feb-19 17:30N 35°36' E 140°06'0 0.0
2018-Feb-19 17:00N 35°36' E 140°06'0 0.0
2018-Feb-19 16:30N 35°36' E 140°06'0 0.0
2018-Feb-19 16:00N 35°36' E 140°06'0 0.0
2018-Feb-19 15:30N 35°36' E 140°06'0 0.0
2018-Feb-19 15:00N 35°36' E 140°06'0 0.0
2018-Feb-19 14:30N 35°36' E 140°06'0 0.0
2018-Feb-19 14:00N 35°36' E 140°06'0 0.0
2018-Feb-19 13:30N 35°36' E 140°06'0 0.0
2018-Feb-19 13:00N 35°36' E 140°06'0 0.0
2018-Feb-19 12:30N 35°36' E 140°06'0 0.0
2018-Feb-19 12:00N 35°36' E 140°06'0 0.0
2018-Feb-19 11:30N 35°36' E 140°06'0 0.0
2018-Feb-19 11:00N 35°36' E 140°06'0 0.0
2018-Feb-19 10:30N 35°36' E 140°06'0 0.0
2018-Feb-19 10:00N 35°36' E 140°06'0 0.0
2018-Feb-19 09:30N 35°36' E 140°06'0 0.0
2018-Feb-19 09:00N 35°36' E 140°06'0 0.0
2018-Feb-19 08:30N 35°36' E 140°06'0 0.0
2018-Feb-19 08:00N 35°36' E 140°06'0 0.0
2018-Feb-19 07:30N 35°36' E 140°06'0 0.0
2018-Feb-19 07:00N 35°36' E 140°06'0 0.0
2018-Feb-19 06:30N 35°36' E 140°06'0 0.0
2018-Feb-19 06:00N 35°36' E 140°06'0 0.0
2018-Feb-19 05:30N 35°36' E 140°06'0 0.0
2018-Feb-19 05:00N 35°36' E 140°06'0 0.0
2018-Feb-19 04:30N 35°36' E 140°06'1 2.6
2018-Feb-19 04:00N 35°35' E 140°05'5 9.8
2018-Feb-19 03:30N 35°34' E 139°59'611.3
2018-Feb-19 03:00N 35°32' E 139°53'510.9
2018-Feb-19 02:30N 35°31' E 139°46'0 0.7
2018-Feb-19 02:00N 35°31' E 139°46'0 0.0
2018-Feb-19 01:30N 35°31' E 139°46'0 0.0
2018-Feb-19 01:00N 35°31' E 139°46'0 0.0
2018-Feb-19 00:30N 35°31' E 139°46'0 0.0
2018-Feb-19 00:00N 35°31' E 139°46'0 0.0
2018-Feb-18 23:30N 35°31' E 139°46'0 0.0
2018-Feb-18 23:00N 35°31' E 139°46'2 3.0
2018-Feb-18 22:30N 35°30' E 139°48'1 2.6
2018-Feb-18 22:00N 35°29' E 139°49'0 0.0
2018-Feb-18 21:30N 35°29' E 139°49'0 0.0
2018-Feb-18 21:00N 35°29' E 139°49'0 0.0
2018-Feb-18 20:30N 35°29' E 139°49'0 0.0
2018-Feb-18 20:00N 35°29' E 139°49'0 0.0
2018-Feb-18 19:30N 35°29' E 139°49'0 0.0
2018-Feb-18 19:00N 35°29' E 139°49'0 0.0
2018-Feb-18 18:30N 35°29' E 139°49'0 0.0
2018-Feb-18 18:00N 35°29' E 139°49'0 0.0
2018-Feb-18 17:30N 35°29' E 139°49'0 0.1
2018-Feb-18 17:00N 35°29' E 139°49'0 0.0
2018-Feb-18 16:30N 35°29' E 139°49'2 4.9
2018-Feb-18 16:00N 35°27' E 139°47'611.4
2018-Feb-18 15:30N 35°21' E 139°45'510.6
2018-Feb-18 15:00N 35°16' E 139°46'510.6
2018-Feb-18 14:30N 35°11' E 139°46'3712.2
2018-Feb-18 11:30N 34°46' E 139°13'712.5
2018-Feb-18 10:58N 34°42' E 139°07'811.7
2018-Feb-18 10:19N 34°37' E 139°00'411.3
2018-Feb-18 09:59N 34°35' E 138°56'1511.8
2018-Feb-18 08:41N 34°33' E 138°37'18210.3
2018-Feb-17 14:59N 33°50' E 135°03'812.8
2018-Feb-17 14:22N 33°56' E 134°57'412.4
2018-Feb-17 14:00N 33°60' E 134°54'612.5
2018-Feb-17 13:29N 34°05' E 134°49'1212.1
2018-Feb-17 12:28N 34°14' E 134°39'510.4
2018-Feb-17 12:00N 34°17' E 134°34'3 6.0
2018-Feb-17 11:30N 34°18' E 134°31'1 1.0
2018-Feb-17 10:58N 34°18' E 134°30'88 3.6
2018-Feb-16 10:35N 34°04' E 132°45'113.6
2018-Feb-16 10:30N 34°04' E 132°43'713.4
2018-Feb-16 10:00N 34°01' E 132°37'713.1
2018-Feb-16 09:29N 33°56' E 132°30'913.3
2018-Feb-16 08:48N 33°50' E 132°22'412.7
2018-Feb-16 08:30N 33°50' E 132°18'612.5
2018-Feb-16 08:00N 33°49' E 132°10'712.3
2018-Feb-16 07:28N 33°46' E 132°03'511.9
2018-Feb-16 07:00N 33°49' E 131°58'612.6
2018-Feb-16 06:30N 33°53' E 131°52'612.7
2018-Feb-16 06:00N 33°57' E 131°46'510.4
2018-Feb-16 05:30N 34°02' E 131°48'0 0.4
2018-Feb-16 05:00N 34°02' E 131°48'0 0.0
2018-Feb-16 04:30N 34°02' E 131°48'0 0.8
2018-Feb-16 03:59N 34°02' E 131°48'3 6.3
2018-Feb-16 03:30N 33°60' E 131°45'4 7.9
2018-Feb-16 03:00N 34°02' E 131°49'0 0.0
2018-Feb-16 02:30N 34°02' E 131°49'0 0.0
2018-Feb-16 02:00N 34°02' E 131°49'0 0.0
2018-Feb-16 01:30N 34°02' E 131°49'0 0.0
2018-Feb-16 00:56N 34°02' E 131°49'0 0.0
2018-Feb-16 00:30N 34°02' E 131°49'0 0.0
2018-Feb-16 00:00N 34°02' E 131°49'0 0.0
2018-Feb-15 23:30N 34°02' E 131°49'0 0.0
2018-Feb-15 22:57N 34°02' E 131°49'1 2.2
2018-Feb-15 22:30N 34°01' E 131°48'0 0.1
2018-Feb-15 22:00N 34°01' E 131°48'0 0.0
2018-Feb-15 21:23N 34°01' E 131°48'0 0.1
2018-Feb-15 20:51N 34°01' E 131°48'0 0.1
2018-Feb-15 20:30N 34°01' E 131°48'0 0.1
2018-Feb-15 19:59N 34°01' E 131°48'0 0.0
2018-Feb-15 19:09N 34°01' E 131°48'0 0.0
2018-Feb-15 18:56N 34°01' E 131°48'0 0.1
2018-Feb-15 18:28N 34°01' E 131°48'0 0.0
2018-Feb-15 18:00N 34°01' E 131°48'0 0.0
2018-Feb-15 17:29N 34°01' E 131°48'0 0.1
2018-Feb-15 16:58N 34°01' E 131°48'0 0.1
2018-Feb-15 16:19N 34°01' E 131°48'0 0.1
2018-Feb-15 15:57N 34°01' E 131°48'0 0.1
2018-Feb-15 15:30N 34°01' E 131°48'0 0.1
2018-Feb-15 14:59N 34°01' E 131°48'1 1.9
2018-Feb-15 14:28N 34°01' E 131°47'4 7.6
2018-Feb-15 13:53N 33°56' E 131°47'610.8
2018-Feb-15 13:18N 33°52' E 131°53'410.9
2018-Feb-15 12:58N 33°50' E 131°57'610.8
2018-Feb-15 12:25N 33°46' E 132°02'2210.1
2018-Feb-15 10:13N 33°54' E 132°27'5 9.9
2018-Feb-15 09:41N 33°57' E 132°32'3 9.9
2018-Feb-15 09:23N 33°59' E 132°34'410.7
2018-Feb-15 09:00N 34°01' E 132°38'100 3.9
2018-Feb-14 07:12N 34°42' E 134°29'312.1
2018-Feb-14 06:56N 34°44' E 134°32'512.1
2018-Feb-14 06:30N 34°45' E 134°38'2 4.3
2018-Feb-14 06:00N 34°47' E 134°39'0 0.0
2018-Feb-14 05:29N 34°47' E 134°39'0 0.0
2018-Feb-14 05:00N 34°47' E 134°39'0 0.0
2018-Feb-14 04:30N 34°47' E 134°39'0 0.0
2018-Feb-14 04:00N 34°47' E 134°39'2 3.3
2018-Feb-14 03:30N 34°46' E 134°39'2 3.6
2018-Feb-14 03:00N 34°44' E 134°40'0 0.0
2018-Feb-14 02:29N 34°44' E 134°40'0 0.1
2018-Feb-14 02:00N 34°44' E 134°40'0 0.1
2018-Feb-14 01:30N 34°44' E 134°40'0 0.0
2018-Feb-14 00:49N 34°44' E 134°40'0 0.0
2018-Feb-14 00:17N 34°44' E 134°40'0 0.0
2018-Feb-13 23:53N 34°44' E 134°40'0 0.1
2018-Feb-13 23:30N 34°44' E 134°40'510.8
2018-Feb-13 23:00N 34°42' E 134°46'713.3
2018-Feb-13 22:30N 34°38' E 134°53'714.6
2018-Feb-13 22:00N 34°37' E 135°01'611.8
2018-Feb-13 21:30N 34°32' E 135°05'713.1
2018-Feb-13 21:00N 34°26' E 135°03'613.0
2018-Feb-13 20:30N 34°19' E 135°01'612.5
2018-Feb-13 20:00N 34°13' E 134°60'612.0
2018-Feb-13 19:30N 34°07' E 135°00'612.3
2018-Feb-13 19:00N 34°01' E 135°02'612.2
2018-Feb-13 18:30N 33°55' E 135°02'100 7.5
2018-Feb-13 05:08N 34°39' E 136°51'211.7
2018-Feb-13 04:57N 34°41' E 136°50'612.1
2018-Feb-13 04:30N 34°46' E 136°47'612.0
2018-Feb-13 04:00N 34°51' E 136°46'612.0
2018-Feb-13 03:30N 34°57' E 136°47'3 5.7
2018-Feb-13 03:00N 34°59' E 136°50'0 0.0
2018-Feb-13 02:30N 34°59' E 136°50'0 0.0
2018-Feb-13 02:00N 34°59' E 136°50'0 0.0
2018-Feb-13 01:30N 34°59' E 136°50'0 0.0
2018-Feb-13 01:00N 34°59' E 136°50'0 0.0
2018-Feb-13 00:30N 34°59' E 136°50'0 0.0
2018-Feb-13 00:00N 34°59' E 136°50'0 1.0
2018-Feb-12 23:30N 34°59' E 136°50'2 4.7
2018-Feb-12 23:00N 35°01' E 136°50'2 3.3
2018-Feb-12 22:30N 35°03' E 136°51'0 0.0
2018-Feb-12 22:00N 35°03' E 136°51'0 0.0
2018-Feb-12 21:30N 35°03' E 136°51'0 0.0
2018-Feb-12 21:00N 35°03' E 136°51'0 0.0
2018-Feb-12 20:30N 35°03' E 136°51'0 0.0
2018-Feb-12 20:00N 35°03' E 136°51'0 0.0
2018-Feb-12 19:30N 35°03' E 136°51'0 0.0
2018-Feb-12 19:00N 35°03' E 136°51'0 0.0
2018-Feb-12 18:30N 35°03' E 136°51'0 0.0
2018-Feb-12 18:00N 35°03' E 136°51'0 0.0
2018-Feb-12 17:30N 35°03' E 136°51'0 0.0
2018-Feb-12 17:00N 35°03' E 136°51'0 0.0
2018-Feb-12 16:30N 35°03' E 136°51'0 0.0
2018-Feb-12 16:00N 35°03' E 136°51'0 0.0
2018-Feb-12 15:30N 35°03' E 136°51'0 0.0
2018-Feb-12 15:00N 35°03' E 136°51'0 0.0
2018-Feb-12 14:30N 35°03' E 136°51'0 0.0
2018-Feb-12 14:00N 35°03' E 136°51'0 0.0
2018-Feb-12 13:30N 35°03' E 136°51'0 0.0
2018-Feb-12 13:00N 35°03' E 136°51'0 0.0
2018-Feb-12 12:30N 35°03' E 136°51'0 0.0
2018-Feb-12 12:00N 35°03' E 136°51'0 0.0
2018-Feb-12 11:30N 35°03' E 136°51'0 0.0
2018-Feb-12 11:00N 35°03' E 136°51'0 0.0
2018-Feb-12 10:30N 35°03' E 136°51'0 0.0
2018-Feb-12 10:00N 35°03' E 136°51'0 0.0
2018-Feb-12 09:30N 35°03' E 136°51'0 0.0
2018-Feb-12 09:00N 35°03' E 136°51'0 0.0
2018-Feb-12 08:29N 35°03' E 136°51'0 0.0
2018-Feb-12 08:00N 35°03' E 136°51'0 0.0
2018-Feb-12 07:30N 35°03' E 136°51'0 0.0
2018-Feb-12 07:00N 35°03' E 136°51'0 0.0
2018-Feb-12 06:30N 35°03' E 136°51'0 0.0
2018-Feb-12 06:00N 35°03' E 136°51'0 0.0
2018-Feb-12 05:30N 35°03' E 136°51'0 0.0
2018-Feb-12 05:00N 35°03' E 136°51'0 0.0
2018-Feb-12 04:30N 35°03' E 136°51'0 0.0
2018-Feb-12 04:00N 35°03' E 136°51'0 0.0
2018-Feb-12 03:30N 35°03' E 136°51'0 0.0
2018-Feb-12 03:00N 35°03' E 136°51'0 0.0
2018-Feb-12 02:30N 35°03' E 136°51'0 0.0
2018-Feb-12 02:00N 35°03' E 136°51'0 0.0
2018-Feb-12 01:30N 35°03' E 136°51'0 0.0
2018-Feb-12 01:00N 35°03' E 136°51'0 0.0
2018-Feb-12 00:30N 35°03' E 136°51'0 0.0
2018-Feb-12 00:00N 35°03' E 136°51'0 0.0
2018-Feb-11 23:30N 35°03' E 136°51'0 0.0
2018-Feb-11 23:00N 35°03' E 136°51'0 0.0
2018-Feb-11 22:30N 35°03' E 136°51'0 0.0
2018-Feb-11 22:00N 35°03' E 136°51'0 0.0
2018-Feb-11 21:30N 35°03' E 136°51'0 0.0
2018-Feb-11 21:00N 35°03' E 136°51'0 0.0
2018-Feb-11 20:30N 35°03' E 136°51'0 0.0
2018-Feb-11 20:00N 35°03' E 136°51'0 0.0
2018-Feb-11 19:30N 35°03' E 136°51'0 0.0
2018-Feb-11 19:00N 35°03' E 136°51'0 0.0
2018-Feb-11 18:30N 35°03' E 136°51'0 0.0
2018-Feb-11 18:00N 35°03' E 136°51'0 0.0
2018-Feb-11 17:30N 35°03' E 136°51'0 0.0
2018-Feb-11 17:00N 35°03' E 136°51'0 0.0
2018-Feb-11 16:30N 35°03' E 136°51'0 0.0
2018-Feb-11 16:00N 35°03' E 136°51'0 0.0
2018-Feb-11 15:30N 35°03' E 136°51'0 0.0
2018-Feb-11 15:00N 35°03' E 136°51'0 0.0
2018-Feb-11 14:30N 35°03' E 136°51'0 0.0
2018-Feb-11 14:00N 35°03' E 136°51'0 0.0
2018-Feb-11 13:30N 35°03' E 136°51'0 0.0
2018-Feb-11 13:00N 35°03' E 136°51'0 0.0
2018-Feb-11 12:30N 35°03' E 136°51'0 0.0
2018-Feb-11 12:00N 35°03' E 136°51'0 0.0
2018-Feb-11 11:30N 35°03' E 136°51'  
Track history (hours):
 
Tides and Currents Weather Stations Pressure Air Temp Water Temp Dewpoint Dewpoint Depression Visibility Wind Speed Wind Dir Waves Ship Positions

Eihoumaru No.65

Last reported at 2018-Feb-21 11:29 UTC. Time now 2018-Feb-21 11:47 UTC.
Position N 35°22' E 139°40'.

Length 62 m; draft 4 m.

Type: Tanker. MMSI: 431003364.

Date/timePositionNaut miles runAvg speedWind from/ knotsBaromVisibWave heightAir tempDewpointWater temp
2018-Feb-21 11:29N 35°22' E 139°40'0 0.0
2018-Feb-21 10:59N 35°22' E 139°40'0 0.0
2018-Feb-21 10:29N 35°22' E 139°40'0 0.0
2018-Feb-21 09:59N 35°22' E 139°40'0 0.0
2018-Feb-21 09:26N 35°22' E 139°40'0 0.1
2018-Feb-21 08:53N 35°22' E 139°40'0 0.0
2018-Feb-21 08:29N 35°22' E 139°40'0 0.1
2018-Feb-21 07:59N 35°22' E 139°40'0 0.0
2018-Feb-21 07:26N 35°22' E 139°40'0 0.0
2018-Feb-21 07:00N 35°22' E 139°40'0 0.0
2018-Feb-21 06:30N 35°22' E 139°40'0 0.0
2018-Feb-21 06:00N 35°22' E 139°40'0 0.0
2018-Feb-21 05:30N 35°22' E 139°40'0 0.0
2018-Feb-21 05:00N 35°22' E 139°40'0 0.0
2018-Feb-21 04:30N 35°22' E 139°40'0 0.0
2018-Feb-21 04:00N 35°22' E 139°40'0 0.0
2018-Feb-21 03:30N 35°22' E 139°40'0 0.0
2018-Feb-21 03:00N 35°22' E 139°40'0 0.0
2018-Feb-21 02:30N 35°22' E 139°40'0 0.0
2018-Feb-21 02:00N 35°22' E 139°40'0 0.0
2018-Feb-21 01:30N 35°22' E 139°40'0 0.0
2018-Feb-21 01:00N 35°22' E 139°40'0 0.0
2018-Feb-21 00:30N 35°22' E 139°40'0 0.0
2018-Feb-21 00:00N 35°22' E 139°40'2 3.5
2018-Feb-20 23:30N 35°23' E 139°42'612.3
2018-Feb-20 23:00N 35°27' E 139°47'611.1
2018-Feb-20 22:29N 35°29' E 139°54'1 1.2
2018-Feb-20 22:00N 35°29' E 139°55'0 0.0
2018-Feb-20 21:30N 35°29' E 139°55'0 0.0
2018-Feb-20 21:00N 35°29' E 139°55'0 0.1
2018-Feb-20 20:30N 35°29' E 139°55'0 0.0
2018-Feb-20 20:00N 35°29' E 139°55'0 0.0
2018-Feb-20 19:30N 35°29' E 139°55'0 0.0
2018-Feb-20 19:00N 35°29' E 139°55'0 0.0
2018-Feb-20 18:30N 35°29' E 139°55'0 0.0
2018-Feb-20 18:00N 35°29' E 139°55'0 0.0
2018-Feb-20 17:30N 35°29' E 139°55'0 0.0
2018-Feb-20 16:57N 35°29' E 139°55'0 0.0
2018-Feb-20 16:30N 35°29' E 139°55'0 0.1
2018-Feb-20 16:00N 35°29' E 139°55'0 0.0
2018-Feb-20 15:30N 35°29' E 139°55'0 0.0
2018-Feb-20 15:00N 35°29' E 139°55'0 0.0
2018-Feb-20 14:30N 35°29' E 139°55'0 0.0
2018-Feb-20 14:00N 35°29' E 139°55'0 0.0
2018-Feb-20 13:26N 35°29' E 139°55'0 0.0
2018-Feb-20 13:00N 35°29' E 139°55'0 0.0
2018-Feb-20 12:30N 35°29' E 139°55'0 0.0
2018-Feb-20 12:00N 35°29' E 139°55'0 0.0
2018-Feb-20 11:30N 35°29' E 139°55'0 0.0
2018-Feb-20 11:00N 35°29' E 139°55'0 0.0
2018-Feb-20 10:30N 35°29' E 139°55'4 7.4
2018-Feb-20 10:00N 35°30' E 139°59'2 4.7
2018-Feb-20 09:30N 35°30' E 140°02'0 0.0
2018-Feb-20 09:00N 35°30' E 140°02'0 0.0
2018-Feb-20 08:30N 35°30' E 140°02'0 0.0
2018-Feb-20 08:00N 35°30' E 140°02'0 0.0
2018-Feb-20 07:30N 35°30' E 140°02'0 0.0
2018-Feb-20 07:00N 35°30' E 140°02'0 0.0
2018-Feb-20 06:30N 35°30' E 140°02'0 0.0
2018-Feb-20 06:00N 35°30' E 140°02'0 0.0
2018-Feb-20 05:30N 35°30' E 140°02'0 0.1
2018-Feb-20 04:56N 35°30' E 140°02'1 2.6
2018-Feb-20 04:29N 35°30' E 140°01'0 0.0
2018-Feb-20 04:00N 35°30' E 140°01'0 0.0
2018-Feb-20 03:30N 35°30' E 140°01'0 0.0
2018-Feb-20 03:00N 35°30' E 140°01'0 0.0
2018-Feb-20 02:29N 35°30' E 140°01'0 0.1
2018-Feb-20 02:00N 35°30' E 140°01'0 0.0
2018-Feb-20 01:29N 35°30' E 140°01'0 0.0
2018-Feb-20 00:59N 35°30' E 140°01'0 0.0
2018-Feb-20 00:30N 35°30' E 140°01'0 0.0
2018-Feb-20 00:00N 35°30' E 140°01'2 4.8
2018-Feb-19 23:30N 35°32' E 140°02'510.8
2018-Feb-19 23:00N 35°36' E 140°06'0 0.1
2018-Feb-19 22:30N 35°36' E 140°06'0 0.0
2018-Feb-19 22:00N 35°36' E 140°06'0 0.0
2018-Feb-19 21:30N 35°36' E 140°06'0 0.0
2018-Feb-19 21:00N 35°36' E 140°06'0 0.0
2018-Feb-19 20:30N 35°36' E 140°06'0 0.0
2018-Feb-19 20:00N 35°36' E 140°06'0 0.0
2018-Feb-19 19:30N 35°36' E 140°06'0 0.0
2018-Feb-19 19:00N 35°36' E 140°06'0 0.0
2018-Feb-19 18:30N 35°36' E 140°06'0 0.0
2018-Feb-19 18:00N 35°36' E 140°06'0 0.0
2018-Feb-19 17:30N 35°36' E 140°06'0 0.0
2018-Feb-19 17:00N 35°36' E 140°06'0 0.0
2018-Feb-19 16:30N 35°36' E 140°06'0 0.0
2018-Feb-19 16:00N 35°36' E 140°06'0 0.0
2018-Feb-19 15:30N 35°36' E 140°06'0 0.0
2018-Feb-19 15:00N 35°36' E 140°06'0 0.0
2018-Feb-19 14:30N 35°36' E 140°06'0 0.0
2018-Feb-19 14:00N 35°36' E 140°06'0 0.0
2018-Feb-19 13:30N 35°36' E 140°06'0 0.0
2018-Feb-19 13:00N 35°36' E 140°06'0 0.0
2018-Feb-19 12:30N 35°36' E 140°06'0 0.0
2018-Feb-19 12:00N 35°36' E 140°06'0 0.0
2018-Feb-19 11:30N 35°36' E 140°06'0 0.0
2018-Feb-19 11:00N 35°36' E 140°06'0 0.0
2018-Feb-19 10:30N 35°36' E 140°06'0 0.0
2018-Feb-19 10:00N 35°36' E 140°06'0 0.0
2018-Feb-19 09:30N 35°36' E 140°06'0 0.0
2018-Feb-19 09:00N 35°36' E 140°06'0 0.0
2018-Feb-19 08:30N 35°36' E 140°06'0 0.0
2018-Feb-19 08:00N 35°36' E 140°06'0 0.0
2018-Feb-19 07:30N 35°36' E 140°06'0 0.0
2018-Feb-19 07:00N 35°36' E 140°06'0 0.0
2018-Feb-19 06:30N 35°36' E 140°06'0 0.0
2018-Feb-19 06:00N 35°36' E 140°06'0 0.0
2018-Feb-19 05:30N 35°36' E 140°06'0 0.0
2018-Feb-19 05:00N 35°36' E 140°06'0 0.0
2018-Feb-19 04:30N 35°36' E 140°06'1 2.6
2018-Feb-19 04:00N 35°35' E 140°05'5 9.8
2018-Feb-19 03:30N 35°34' E 139°59'611.3
2018-Feb-19 03:00N 35°32' E 139°53'510.9
2018-Feb-19 02:30N 35°31' E 139°46'0 0.7
2018-Feb-19 02:00N 35°31' E 139°46'0 0.0
2018-Feb-19 01:30N 35°31' E 139°46'0 0.0
2018-Feb-19 01:00N 35°31' E 139°46'0 0.0
2018-Feb-19 00:30N 35°31' E 139°46'0 0.0
2018-Feb-19 00:00N 35°31' E 139°46'0 0.0
2018-Feb-18 23:30N 35°31' E 139°46'0 0.0
2018-Feb-18 23:00N 35°31' E 139°46'2 3.0
2018-Feb-18 22:30N 35°30' E 139°48'1 2.6
2018-Feb-18 22:00N 35°29' E 139°49'0 0.0
2018-Feb-18 21:30N 35°29' E 139°49'0 0.0
2018-Feb-18 21:00N 35°29' E 139°49'0 0.0
2018-Feb-18 20:30N 35°29' E 139°49'0 0.0
2018-Feb-18 20:00N 35°29' E 139°49'0 0.0
2018-Feb-18 19:30N 35°29' E 139°49'0 0.0
2018-Feb-18 19:00N 35°29' E 139°49'0 0.0
2018-Feb-18 18:30N 35°29' E 139°49'0 0.0
2018-Feb-18 18:00N 35°29' E 139°49'0 0.0
2018-Feb-18 17:30N 35°29' E 139°49'0 0.1
2018-Feb-18 17:00N 35°29' E 139°49'0 0.0
2018-Feb-18 16:30N 35°29' E 139°49'2 4.9
2018-Feb-18 16:00N 35°27' E 139°47'611.4
2018-Feb-18 15:30N 35°21' E 139°45'510.6
2018-Feb-18 15:00N 35°16' E 139°46'510.6
2018-Feb-18 14:30N 35°11' E 139°46'3712.2
2018-Feb-18 11:30N 34°46' E 139°13'712.5
2018-Feb-18 10:58N 34°42' E 139°07'811.7
2018-Feb-18 10:19N 34°37' E 139°00'411.3
2018-Feb-18 09:59N 34°35' E 138°56'1511.8
2018-Feb-18 08:41N 34°33' E 138°37'18210.3
2018-Feb-17 14:59N 33°50' E 135°03'812.8
2018-Feb-17 14:22N 33°56' E 134°57'412.4
2018-Feb-17 14:00N 33°60' E 134°54'612.5
2018-Feb-17 13:29N 34°05' E 134°49'1212.1
2018-Feb-17 12:28N 34°14' E 134°39'510.4
2018-Feb-17 12:00N 34°17' E 134°34'3 6.0
2018-Feb-17 11:30N 34°18' E 134°31'1 1.0
2018-Feb-17 10:58N 34°18' E 134°30'88 3.6
2018-Feb-16 10:35N 34°04' E 132°45'113.6
2018-Feb-16 10:30N 34°04' E 132°43'713.4
2018-Feb-16 10:00N 34°01' E 132°37'713.1
2018-Feb-16 09:29N 33°56' E 132°30'913.3
2018-Feb-16 08:48N 33°50' E 132°22'412.7
2018-Feb-16 08:30N 33°50' E 132°18'612.5
2018-Feb-16 08:00N 33°49' E 132°10'712.3
2018-Feb-16 07:28N 33°46' E 132°03'511.9
2018-Feb-16 07:00N 33°49' E 131°58'612.6
2018-Feb-16 06:30N 33°53' E 131°52'612.7
2018-Feb-16 06:00N 33°57' E 131°46'510.4
2018-Feb-16 05:30N 34°02' E 131°48'0 0.4
2018-Feb-16 05:00N 34°02' E 131°48'0 0.0
2018-Feb-16 04:30N 34°02' E 131°48'0 0.8
2018-Feb-16 03:59N 34°02' E 131°48'3 6.3
2018-Feb-16 03:30N 33°60' E 131°45'4 7.9
2018-Feb-16 03:00N 34°02' E 131°49'0 0.0
2018-Feb-16 02:30N 34°02' E 131°49'0 0.0
2018-Feb-16 02:00N 34°02' E 131°49'0 0.0
2018-Feb-16 01:30N 34°02' E 131°49'0 0.0
2018-Feb-16 00:56N 34°02' E 131°49'0 0.0
2018-Feb-16 00:30N 34°02' E 131°49'0 0.0
2018-Feb-16 00:00N 34°02' E 131°49'0 0.0
2018-Feb-15 23:30N 34°02' E 131°49'0 0.0
2018-Feb-15 22:57N 34°02' E 131°49'1 2.2
2018-Feb-15 22:30N 34°01' E 131°48'0 0.1
2018-Feb-15 22:00N 34°01' E 131°48'0 0.0
2018-Feb-15 21:23N 34°01' E 131°48'0 0.1
2018-Feb-15 20:51N 34°01' E 131°48'0 0.1
2018-Feb-15 20:30N 34°01' E 131°48'0 0.1
2018-Feb-15 19:59N 34°01' E 131°48'0 0.0
2018-Feb-15 19:09N 34°01' E 131°48'0 0.0
2018-Feb-15 18:56N 34°01' E 131°48'0 0.1
2018-Feb-15 18:28N 34°01' E 131°48'0 0.0
2018-Feb-15 18:00N 34°01' E 131°48'0 0.0
2018-Feb-15 17:29N 34°01' E 131°48'0 0.1
2018-Feb-15 16:58N 34°01' E 131°48'0 0.1
2018-Feb-15 16:19N 34°01' E 131°48'0 0.1
2018-Feb-15 15:57N 34°01' E 131°48'0 0.1
2018-Feb-15 15:30N 34°01' E 131°48'0 0.1
2018-Feb-15 14:59N 34°01' E 131°48'1 1.9
2018-Feb-15 14:28N 34°01' E 131°47'4 7.6
2018-Feb-15 13:53N 33°56' E 131°47'610.8
2018-Feb-15 13:18N 33°52' E 131°53'410.9
2018-Feb-15 12:58N 33°50' E 131°57'610.8
2018-Feb-15 12:25N 33°46' E 132°02'2210.1
2018-Feb-15 10:13N 33°54' E 132°27'5 9.9
2018-Feb-15 09:41N 33°57' E 132°32'3 9.9
2018-Feb-15 09:23N 33°59' E 132°34'410.7
2018-Feb-15 09:00N 34°01' E 132°38'100 3.9
2018-Feb-14 07:12N 34°42' E 134°29'312.1
2018-Feb-14 06:56N 34°44' E 134°32'512.1
2018-Feb-14 06:30N 34°45' E 134°38'2 4.3
2018-Feb-14 06:00N 34°47' E 134°39'0 0.0
2018-Feb-14 05:29N 34°47' E 134°39'0 0.0
2018-Feb-14 05:00N 34°47' E 134°39'0 0.0
2018-Feb-14 04:30N 34°47' E 134°39'0 0.0
2018-Feb-14 04:00N 34°47' E 134°39'2 3.3
2018-Feb-14 03:30N 34°46' E 134°39'2 3.6
2018-Feb-14 03:00N 34°44' E 134°40'0 0.0
2018-Feb-14 02:29N 34°44' E 134°40'0 0.1
2018-Feb-14 02:00N 34°44' E 134°40'0 0.1
2018-Feb-14 01:30N 34°44' E 134°40'0 0.0
2018-Feb-14 00:49N 34°44' E 134°40'0 0.0
2018-Feb-14 00:17N 34°44' E 134°40'0 0.0
2018-Feb-13 23:53N 34°44' E 134°40'0 0.1
2018-Feb-13 23:30N 34°44' E 134°40'510.8
2018-Feb-13 23:00N 34°42' E 134°46'713.3
2018-Feb-13 22:30N 34°38' E 134°53'714.6
2018-Feb-13 22:00N 34°37' E 135°01'611.8
2018-Feb-13 21:30N 34°32' E 135°05'713.1
2018-Feb-13 21:00N 34°26' E 135°03'613.0
2018-Feb-13 20:30N 34°19' E 135°01'612.5
2018-Feb-13 20:00N 34°13' E 134°60'612.0
2018-Feb-13 19:30N 34°07' E 135°00'612.3
2018-Feb-13 19:00N 34°01' E 135°02'612.2
2018-Feb-13 18:30N 33°55' E 135°02'100 7.5
2018-Feb-13 05:08N 34°39' E 136°51'211.7
2018-Feb-13 04:57N 34°41' E 136°50'612.1
2018-Feb-13 04:30N 34°46' E 136°47'612.0
2018-Feb-13 04:00N 34°51' E 136°46'612.0
2018-Feb-13 03:30N 34°57' E 136°47'3 5.7
2018-Feb-13 03:00N 34°59' E 136°50'0 0.0
2018-Feb-13 02:30N 34°59' E 136°50'0 0.0
2018-Feb-13 02:00N 34°59' E 136°50'0 0.0
2018-Feb-13 01:30N 34°59' E 136°50'0 0.0
2018-Feb-13 01:00N 34°59' E 136°50'0 0.0
2018-Feb-13 00:30N 34°59' E 136°50'0 0.0
2018-Feb-13 00:00N 34°59' E 136°50'0 1.0
2018-Feb-12 23:30N 34°59' E 136°50'2 4.7
2018-Feb-12 23:00N 35°01' E 136°50'2 3.3
2018-Feb-12 22:30N 35°03' E 136°51'0 0.0
2018-Feb-12 22:00N 35°03' E 136°51'0 0.0
2018-Feb-12 21:30N 35°03' E 136°51'0 0.0
2018-Feb-12 21:00N 35°03' E 136°51'0 0.0
2018-Feb-12 20:30N 35°03' E 136°51'0 0.0
2018-Feb-12 20:00N 35°03' E 136°51'0 0.0
2018-Feb-12 19:30N 35°03' E 136°51'0 0.0
2018-Feb-12 19:00N 35°03' E 136°51'0 0.0
2018-Feb-12 18:30N 35°03' E 136°51'0 0.0
2018-Feb-12 18:00N 35°03' E 136°51'0 0.0
2018-Feb-12 17:30N 35°03' E 136°51'0 0.0
2018-Feb-12 17:00N 35°03' E 136°51'0 0.0
2018-Feb-12 16:30N 35°03' E 136°51'0 0.0
2018-Feb-12 16:00N 35°03' E 136°51'0 0.0
2018-Feb-12 15:30N 35°03' E 136°51'0 0.0
2018-Feb-12 15:00N 35°03' E 136°51'0 0.0
2018-Feb-12 14:30N 35°03' E 136°51'0 0.0
2018-Feb-12 14:00N 35°03' E 136°51'0 0.0
2018-Feb-12 13:30N 35°03' E 136°51'0 0.0
2018-Feb-12 13:00N 35°03' E 136°51'0 0.0
2018-Feb-12 12:30N 35°03' E 136°51'0 0.0
2018-Feb-12 12:00N 35°03' E 136°51'0 0.0
2018-Feb-12 11:30N 35°03' E 136°51'0 0.0
2018-Feb-12 11:00N 35°03' E 136°51'0 0.0
2018-Feb-12 10:30N 35°03' E 136°51'0 0.0
2018-Feb-12 10:00N 35°03' E 136°51'0 0.0
2018-Feb-12 09:30N 35°03' E 136°51'0 0.0
2018-Feb-12 09:00N 35°03' E 136°51'0 0.0
2018-Feb-12 08:29N 35°03' E 136°51'0 0.0
2018-Feb-12 08:00N 35°03' E 136°51'0 0.0
2018-Feb-12 07:30N 35°03' E 136°51'0 0.0
2018-Feb-12 07:00N 35°03' E 136°51'0 0.0
2018-Feb-12 06:30N 35°03' E 136°51'0 0.0
2018-Feb-12 06:00N 35°03' E 136°51'0 0.0
2018-Feb-12 05:30N 35°03' E 136°51'0 0.0
2018-Feb-12 05:00N 35°03' E 136°51'0 0.0
2018-Feb-12 04:30N 35°03' E 136°51'0 0.0
2018-Feb-12 04:00N 35°03' E 136°51'0 0.0
2018-Feb-12 03:30N 35°03' E 136°51'0 0.0
2018-Feb-12 03:00N 35°03' E 136°51'0 0.0
2018-Feb-12 02:30N 35°03' E 136°51'0 0.0
2018-Feb-12 02:00N 35°03' E 136°51'0 0.0
2018-Feb-12 01:30N 35°03' E 136°51'0 0.0
2018-Feb-12 01:00N 35°03' E 136°51'0 0.0
2018-Feb-12 00:30N 35°03' E 136°51'0 0.0
2018-Feb-12 00:00N 35°03' E 136°51'0 0.0
2018-Feb-11 23:30N 35°03' E 136°51'0 0.0
2018-Feb-11 23:00N 35°03' E 136°51'0 0.0
2018-Feb-11 22:30N 35°03' E 136°51'0 0.0
2018-Feb-11 22:00N 35°03' E 136°51'0 0.0
2018-Feb-11 21:30N 35°03' E 136°51'0 0.0
2018-Feb-11 21:00N 35°03' E 136°51'0 0.0
2018-Feb-11 20:30N 35°03' E 136°51'0 0.0
2018-Feb-11 20:00N 35°03' E 136°51'0 0.0
2018-Feb-11 19:30N 35°03' E 136°51'0 0.0
2018-Feb-11 19:00N 35°03' E 136°51'0 0.0
2018-Feb-11 18:30N 35°03' E 136°51'0 0.0
2018-Feb-11 18:00N 35°03' E 136°51'0 0.0
2018-Feb-11 17:30N 35°03' E 136°51'0 0.0
2018-Feb-11 17:00N 35°03' E 136°51'0 0.0
2018-Feb-11 16:30N 35°03' E 136°51'0 0.0
2018-Feb-11 16:00N 35°03' E 136°51'0 0.0
2018-Feb-11 15:30N 35°03' E 136°51'0 0.0
2018-Feb-11 15:00N 35°03' E 136°51'0 0.0
2018-Feb-11 14:30N 35°03' E 136°51'0 0.0
2018-Feb-11 14:00N 35°03' E 136°51'0 0.0
2018-Feb-11 13:30N 35°03' E 136°51'0 0.0
2018-Feb-11 13:00N 35°03' E 136°51'0 0.0
2018-Feb-11 12:30N 35°03' E 136°51'0 0.0
2018-Feb-11 12:00N 35°03' E 136°51'0 0.0
2018-Feb-11 11:30N 35°03' E 136°51'  

Dump ship's entire track history